Time;durP1;ratioP1;P1;durP2;ratioP2;P2;SDS_P1;SDS_P2;PMS_P1;PMS_P2;Temp;Humidity;BMP_temperature;BMP_pressure;BME280_temperature;BME280_humidity;BME280_pressure;Samples;Min_cycle;Max_cycle;Signal;HPM_P1;HPM_P2
2021/12/30 00:01:48;;;;;;;83.27;13.60;;;;;;;;;;5052207;28;45394;-84
2021/12/30 00:04:14;;;;;;;76.25;13.43;;;;;;;;;;5052773;28;44235;-84
2021/12/30 00:06:41;;;;;;;80.93;14.00;;;;;;;;;;5051455;28;44901;-84
2021/12/30 00:09:09;;;;;;;106.38;14.63;;;;;;;;;;5052170;28;45024;-84
2021/12/30 00:11:37;;;;;;;70.20;13.30;;;;;;;;;;5051712;28;43196;-84
2021/12/30 00:14:04;;;;;;;77.13;14.38;;;;;;;;;;5051800;28;43642;-83
2021/12/30 00:16:30;;;;;;;86.38;15.10;;;;;;;;;;5052180;28;44850;-84
2021/12/30 00:18:57;;;;;;;81.70;14.68;;;;;;;;;;5053436;28;20088;-83
2021/12/30 00:21:26;;;;;;;81.00;14.38;;;;;;;;;;5052400;28;44923;-84
2021/12/30 00:23:53;;;;;;;91.57;15.32;;;;;;;;;;5052458;28;44885;-83
2021/12/30 00:26:19;;;;;;;93.40;16.23;;;;;;;;;;5051050;28;43706;-84
2021/12/30 00:28:46;;;;;;;76.47;14.52;;;;;;;;;;5052501;28;42905;-83
2021/12/30 00:31:14;;;;;;;90.28;16.50;;;;;;;;;;5051767;28;44146;-83
2021/12/30 00:33:42;;;;;;;81.47;14.43;;;;;;;;;;5051596;28;43661;-83
2021/12/30 00:36:09;;;;;;;87.63;14.45;;;;;;;;;;5051102;28;45918;-84
2021/12/30 00:38:37;;;;;;;79.97;15.13;;;;;;;;;;5052239;28;42923;-84
2021/12/30 00:41:04;;;;;;;86.67;15.90;;;;;;;;;;5052352;28;20054;-83
2021/12/30 00:43:31;;;;;;;97.15;16.75;;;;;;;;;;5051911;28;44982;-84
2021/12/30 00:45:58;;;;;;;86.25;16.33;;;;;;;;;;5052624;28;20057;-84
2021/12/30 00:48:25;;;;;;;96.13;17.23;;;;;;;;;;5051285;28;42836;-84
2021/12/30 00:50:52;;;;;;;74.07;12.45;;;;;;;;;;5052220;28;43922;-83
2021/12/30 00:53:19;;;;;;;92.80;14.57;;;;;;;;;;5051466;28;42519;-84
2021/12/30 00:55:46;;;;;;;85.25;13.63;;;;;;;;;;5051097;28;44879;-83
2021/12/30 00:58:12;;;;;;;84.57;14.32;;;;;;;;;;5051214;28;44597;-83
2021/12/30 01:00:40;;;;;;;127.20;15.63;;;;;;;;;;5050960;28;44712;-83
2021/12/30 01:03:08;;;;;;;83.15;12.20;;;;;;;;;;5051419;28;20053;-84
2021/12/30 01:05:35;;;;;;;94.38;13.77;;;;;;;;;;5050996;28;42870;-84
2021/12/30 01:08:03;;;;;;;93.32;13.60;;;;;;;;;;5049650;28;42959;-84
2021/12/30 01:10:30;;;;;;;94.95;13.98;;;;;;;;;;5051015;28;42924;-83
2021/12/30 01:13:04;;;;;;;81.70;14.02;;;;;;;;;;5051084;28;42679;-83
2021/12/30 01:15:46;;;;;;;95.60;14.80;;;;;;;;;;5050974;28;44875;-83
2021/12/30 01:18:55;;;;;;;79.20;16.65;;;;;;;;;;5051103;28;44888;-84
2021/12/30 01:21:09;;;;;;;136.05;17.30;;;;;;;;;;5048973;28;42738;-83
2021/12/30 01:23:36;;;;;;;82.25;14.10;;;;;;;;;;5050700;28;43802;-84
2021/12/30 01:26:03;;;;;;;114.35;17.67;;;;;;;;;;5050480;28;43917;-84
2021/12/30 01:28:30;;;;;;;87.07;17.98;;;;;;;;;;5051342;28;45098;-83
2021/12/30 01:30:57;;;;;;;95.10;16.15;;;;;;;;;;5050348;28;43009;-83
2021/12/30 01:33:26;;;;;;;118.65;19.00;;;;;;;;;;5051560;28;43766;-84
2021/12/30 01:35:53;;;;;;;119.45;20.42;;;;;;;;;;5051344;28;44896;-84
2021/12/30 01:38:20;;;;;;;149.40;22.95;;;;;;;;;;5049804;28;43901;-83
2021/12/30 01:40:48;;;;;;;107.43;19.83;;;;;;;;;;5051172;28;44564;-83
2021/12/30 01:43:16;;;;;;;105.35;21.27;;;;;;;;;;5049333;28;43921;-83
2021/12/30 01:45:43;;;;;;;90.40;19.15;;;;;;;;;;5051734;28;42893;-83
2021/12/30 01:48:10;;;;;;;103.28;17.88;;;;;;;;;;5050340;28;43058;-84
2021/12/30 01:50:37;;;;;;;96.35;19.60;;;;;;;;;;5049634;28;42988;-84
2021/12/30 01:53:05;;;;;;;134.05;20.77;;;;;;;;;;5050027;28;44623;-83
2021/12/30 01:55:32;;;;;;;97.65;19.65;;;;;;;;;;5050876;28;44115;-83
2021/12/30 01:57:59;;;;;;;94.83;20.30;;;;;;;;;;5049470;28;43194;-83
2021/12/30 02:00:27;;;;;;;96.65;19.67;;;;;;;;;;5051277;28;42518;-83
2021/12/30 02:02:54;;;;;;;121.88;23.58;;;;;;;;;;5050363;28;42972;-83
2021/12/30 02:05:21;;;;;;;93.78;21.73;;;;;;;;;;5050113;28;42986;-84
2021/12/30 02:07:48;;;;;;;125.88;24.67;;;;;;;;;;5050744;28;42106;-84
2021/12/30 02:10:15;;;;;;;111.53;24.45;;;;;;;;;;5051090;28;44280;-84
2021/12/30 02:12:42;;;;;;;130.20;25.67;;;;;;;;;;5049165;28;45259;-84
2021/12/30 02:15:11;;;;;;;136.38;24.60;;;;;;;;;;5049953;28;45914;-84
2021/12/30 02:17:38;;;;;;;102.38;24.00;;;;;;;;;;5050174;28;43169;-83
2021/12/30 02:20:07;;;;;;;128.02;25.73;;;;;;;;;;5049542;28;43821;-84
2021/12/30 02:22:34;;;;;;;143.52;27.27;;;;;;;;;;5049696;28;44948;-83
2021/12/30 02:25:03;;;;;;;135.50;26.60;;;;;;;;;;5050675;28;43820;-84
2021/12/30 02:27:30;;;;;;;151.20;29.02;;;;;;;;;;5049048;28;43016;-84
2021/12/30 02:29:57;;;;;;;113.90;26.88;;;;;;;;;;5050478;28;45441;-83
2021/12/30 02:32:25;;;;;;;124.30;27.07;;;;;;;;;;5049996;28;20063;-83
2021/12/30 02:34:52;;;;;;;115.80;26.13;;;;;;;;;;5050456;28;45122;-84
2021/12/30 02:37:19;;;;;;;135.73;28.70;;;;;;;;;;5049962;28;43930;-84
2021/12/30 02:39:53;;;;;;;162.98;31.63;;;;;;;;;;5049175;28;42731;-84
2021/12/30 02:42:22;;;;;;;122.38;27.60;;;;;;;;;;5049381;28;42956;-84
2021/12/30 02:44:48;;;;;;;;;;;;;;;;;;5051487;28;44899;-84
2021/12/30 02:47:15;;;;;;;116.03;27.65;;;;;;;;;;5049307;28;44405;-84
2021/12/30 02:49:42;;;;;;;151.38;31.10;;;;;;;;;;5050505;28;44946;-84
2021/12/30 02:52:09;;;;;;;175.50;33.35;;;;;;;;;;5051989;28;42869;-85
2021/12/30 02:54:40;;;;;;;141.75;30.83;;;;;;;;;;5049350;28;43924;-84
2021/12/30 02:57:07;;;;;;;111.05;29.02;;;;;;;;;;5049245;28;45008;-84
2021/12/30 02:59:33;;;;;;;134.68;30.38;;;;;;;;;;5049998;28;44101;-84
2021/12/30 03:02:00;;;;;;;147.15;30.33;;;;;;;;;;5048763;28;44237;-84
2021/12/30 03:04:29;;;;;;;118.18;26.58;;;;;;;;;;5049526;28;44932;-84
2021/12/30 03:06:58;;;;;;;102.80;25.08;;;;;;;;;;5049346;28;44712;-85
2021/12/30 03:09:24;;;;;;;;;;;;;;;;;;5050569;28;43887;-84
2021/12/30 03:11:52;;;;;;;77.77;21.97;;;;;;;;;;5049687;28;43501;-84
2021/12/30 03:14:18;;;;;;;87.32;21.95;;;;;;;;;;5050179;28;44723;-84
2021/12/30 03:16:45;;;;;;;89.20;23.10;;;;;;;;;;5048339;28;42913;-84
2021/12/30 03:19:12;;;;;;;99.43;23.90;;;;;;;;;;5049866;28;43723;-84
2021/12/30 03:21:40;;;;;;;70.47;21.48;;;;;;;;;;5048470;28;42917;-83
2021/12/30 03:24:06;;;;;;;105.85;25.00;;;;;;;;;;5049582;28;45267;-84
2021/12/30 03:26:34;;;;;;;91.75;22.92;;;;;;;;;;5048892;28;43020;-84
2021/12/30 03:29:02;;;;;;;122.15;25.75;;;;;;;;;;5048475;28;43191;-84
2021/12/30 03:31:28;;;;;;;75.90;23.33;;;;;;;;;;5049087;28;44205;-84
2021/12/30 03:33:55;;;;;;;63.90;21.13;;;;;;;;;;5052289;28;41769;-84
2021/12/30 03:36:22;;;;;;;92.22;24.48;;;;;;;;;;5051838;28;44881;-84
2021/12/30 03:38:50;;;;;;;88.63;25.95;;;;;;;;;;5053591;28;43872;-84
2021/12/30 03:41:18;;;;;;;113.28;27.20;;;;;;;;;;5052738;28;42978;-84
2021/12/30 03:43:45;;;;;;;75.80;23.55;;;;;;;;;;5052197;28;44969;-84
2021/12/30 03:46:11;;;;;;;61.95;22.15;;;;;;;;;;5052583;28;42710;-85
2021/12/30 03:48:42;;;;;;;64.20;22.48;;;;;;;;;;5052804;28;45002;-84
2021/12/30 03:51:13;;;;;;;60.05;21.63;;;;;;;;;;5052030;28;44894;-84
2021/12/30 03:53:41;;;;;;;60.05;21.40;;;;;;;;;;5051941;28;43712;-84
2021/12/30 03:56:09;;;;;;;92.80;25.10;;;;;;;;;;5052933;28;45050;-84
2021/12/30 03:58:36;;;;;;;81.97;25.70;;;;;;;;;;5052161;28;44830;-84
2021/12/30 04:01:03;;;;;;;63.10;21.20;;;;;;;;;;5052648;28;45237;-83
2021/12/30 04:03:30;;;;;;;50.17;20.40;;;;;;;;;;5052904;28;45241;-84
2021/12/30 04:05:57;;;;;;;66.50;21.10;;;;;;;;;;5051903;28;42224;-83
2021/12/30 04:08:24;;;;;;;57.97;19.15;;;;;;;;;;5052742;28;40076;-84
2021/12/30 04:10:51;;;;;;;76.53;22.40;;;;;;;;;;5051783;28;44845;-84
2021/12/30 04:13:18;;;;;;;51.15;19.55;;;;;;;;;;5052276;28;43697;-84
2021/12/30 04:15:44;;;;;;;74.00;22.75;;;;;;;;;;5053081;28;43921;-84
2021/12/30 04:18:11;;;;;;;65.70;22.30;;;;;;;;;;5050909;28;44962;-84
2021/12/30 04:20:38;;;;;;;76.03;23.85;;;;;;;;;;5052756;28;43928;-84
2021/12/30 04:23:04;;;;;;;69.43;21.38;;;;;;;;;;5051483;28;44956;-84
2021/12/30 04:25:31;;;;;;;71.93;22.77;;;;;;;;;;5051911;28;44732;-84
2021/12/30 04:27:58;;;;;;;73.15;23.80;;;;;;;;;;5051638;28;42717;-84
2021/12/30 04:30:26;;;;;;;82.32;24.27;;;;;;;;;;5052528;28;45056;-85
2021/12/30 04:32:53;;;;;;;66.00;21.10;;;;;;;;;;5050755;28;42713;-84
2021/12/30 04:35:20;;;;;;;81.35;21.65;;;;;;;;;;5052376;28;45041;-85
2021/12/30 04:37:46;;;;;;;67.70;19.90;;;;;;;;;;5051881;28;42885;-84
2021/12/30 04:40:13;;;;;;;47.83;17.75;;;;;;;;;;5051941;28;42683;-85
2021/12/30 04:42:40;;;;;;;34.97;13.88;;;;;;;;;;5051149;28;44114;-84
2021/12/30 04:45:08;;;;;;;44.40;14.50;;;;;;;;;;5052127;28;38373;-84
2021/12/30 04:47:35;;;;;;;41.37;14.17;;;;;;;;;;5050905;28;45369;-85
2021/12/30 04:50:02;;;;;;;42.17;13.43;;;;;;;;;;5051814;28;44023;-85
2021/12/30 04:52:29;;;;;;;33.25;11.82;;;;;;;;;;5051530;28;42686;-85
2021/12/30 04:54:55;;;;;;;30.67;12.48;;;;;;;;;;5051769;28;43573;-85
2021/12/30 04:57:22;;;;;;;46.17;13.68;;;;;;;;;;5052004;28;44873;-85
2021/12/30 04:59:49;;;;;;;37.03;12.73;;;;;;;;;;5051705;28;42544;-85
2021/12/30 05:02:16;;;;;;;47.55;13.57;;;;;;;;;;5050274;28;45056;-85
2021/12/30 05:04:42;;;;;;;44.72;12.73;;;;;;;;;;5051686;28;43784;-85
2021/12/30 05:07:09;;;;;;;27.40;9.25;;;;;;;;;;5049262;28;45912;-85
2021/12/30 05:09:36;;;;;;;17.15;7.90;;;;;;;;;;5049691;28;44355;-85
2021/12/30 05:12:03;;;;;;;22.88;7.93;;;;;;;;;;5048932;28;44956;-84
2021/12/30 05:14:29;;;;;;;25.30;9.02;;;;;;;;;;5048642;28;43893;-84
2021/12/30 05:17:02;;;;;;;25.40;8.25;;;;;;;;;;5048980;28;43803;-85
2021/12/30 05:19:30;;;;;;;8.60;5.07;;;;;;;;;;5051537;28;43713;-85
2021/12/30 05:21:57;;;;;;;20.77;6.72;;;;;;;;;;5050660;28;44951;-85
2021/12/30 05:24:23;;;;;;;18.63;7.25;;;;;;;;;;5051523;28;35860;-85
2021/12/30 05:26:50;;;;;;;11.10;5.95;;;;;;;;;;5050863;28;44962;-85
2021/12/30 05:29:17;;;;;;;20.50;7.55;;;;;;;;;;5051169;28;45259;-84
2021/12/30 05:31:44;;;;;;;31.88;9.63;;;;;;;;;;5049784;28;42716;-84
2021/12/30 05:34:10;;;;;;;21.60;8.68;;;;;;;;;;5050966;28;44945;-84
2021/12/30 05:36:37;;;;;;;53.40;14.60;;;;;;;;;;5049842;28;44105;-84
2021/12/30 05:39:04;;;;;;;60.95;17.23;;;;;;;;;;5051118;28;43658;-84
2021/12/30 05:41:31;;;;;;;77.90;18.05;;;;;;;;;;5051007;28;42986;-84
2021/12/30 05:44:00;;;;;;;60.17;19.88;;;;;;;;;;5050126;28;43726;-84
2021/12/30 05:46:27;;;;;;;82.13;20.73;;;;;;;;;;5050685;28;43980;-85
2021/12/30 05:48:54;;;;;;;65.47;19.90;;;;;;;;;;5050944;28;44887;-85
2021/12/30 05:51:21;;;;;;;104.35;24.65;;;;;;;;;;5049850;28;45140;-84
2021/12/30 05:53:47;;;;;;;50.70;17.20;;;;;;;;;;5050819;28;44997;-84
2021/12/30 05:56:14;;;;;;;77.47;22.50;;;;;;;;;;5048948;28;44916;-84
2021/12/30 05:58:41;;;;;;;68.05;19.48;;;;;;;;;;5050218;28;44708;-84
2021/12/30 06:01:07;;;;;;;100.07;20.25;;;;;;;;;;5050698;28;43868;-84
2021/12/30 06:03:35;;;;;;;63.95;17.13;;;;;;;;;;5050325;28;44954;-85
2021/12/30 06:06:01;;;;;;;72.53;17.88;;;;;;;;;;5050977;28;42992;-83
2021/12/30 06:08:28;;;;;;;59.95;15.32;;;;;;;;;;5051104;28;43851;-84
2021/12/30 06:10:55;;;;;;;50.72;13.98;;;;;;;;;;5049743;28;42702;-84
2021/12/30 06:13:21;;;;;;;58.00;14.93;;;;;;;;;;5050631;28;44930;-84
2021/12/30 06:15:48;;;;;;;51.22;14.18;;;;;;;;;;5050533;28;43172;-84
2021/12/30 06:18:15;;;;;;;56.55;13.82;;;;;;;;;;5049649;28;43661;-84
2021/12/30 06:20:41;;;;;;;42.22;12.32;;;;;;;;;;5049993;28;44826;-84
2021/12/30 06:23:08;;;;;;;50.30;14.30;;;;;;;;;;5049735;28;43917;-84
2021/12/30 06:25:35;;;;;;;56.17;13.65;;;;;;;;;;5049647;28;42596;-84
2021/12/30 06:28:01;;;;;;;50.90;13.20;;;;;;;;;;5051258;28;45076;-85
2021/12/30 06:30:28;;;;;;;59.63;14.63;;;;;;;;;;5054437;28;42454;-85
2021/12/30 06:32:55;;;;;;;38.90;13.00;;;;;;;;;;5051433;28;43864;-84
2021/12/30 06:35:22;;;;;;;60.85;14.15;;;;;;;;;;5050458;28;43907;-84
2021/12/30 06:37:49;;;;;;;53.65;13.50;;;;;;;;;;5050106;28;42735;-83
2021/12/30 06:40:16;;;;;;;26.85;9.32;;;;;;;;;;5049985;28;43897;-84
2021/12/30 06:42:43;;;;;;;24.10;9.10;;;;;;;;;;5049408;28;44900;-84
2021/12/30 06:45:11;;;;;;;27.10;9.35;;;;;;;;;;5050016;28;42785;-84
2021/12/30 06:47:41;;;;;;;19.42;8.40;;;;;;;;;;5049079;28;42925;-84
2021/12/30 06:50:08;;;;;;;29.63;9.02;;;;;;;;;;5050748;28;42802;-84
2021/12/30 06:52:35;;;;;;;27.15;9.50;;;;;;;;;;5049533;28;44845;-84
2021/12/30 06:55:02;;;;;;;23.00;9.35;;;;;;;;;;5049836;28;45063;-83
2021/12/30 06:57:29;;;;;;;21.75;8.75;;;;;;;;;;5049659;28;44699;-83
2021/12/30 06:59:56;;;;;;;22.45;9.85;;;;;;;;;;5049614;28;44758;-83
2021/12/30 07:02:23;;;;;;;25.27;9.45;;;;;;;;;;5049369;28;44952;-84
2021/12/30 07:04:49;;;;;;;29.77;10.63;;;;;;;;;;5050057;28;43719;-84
2021/12/30 07:07:16;;;;;;;34.45;10.73;;;;;;;;;;5047781;28;44900;-83
2021/12/30 07:09:43;;;;;;;24.48;10.30;;;;;;;;;;5049249;28;42923;-83
2021/12/30 07:12:10;;;;;;;31.40;11.20;;;;;;;;;;5049944;28;45753;-83
2021/12/30 07:14:37;;;;;;;26.48;11.88;;;;;;;;;;5049153;28;44462;-83
2021/12/30 07:17:03;;;;;;;33.97;12.32;;;;;;;;;;5049110;28;43936;-83
2021/12/30 07:19:30;;;;;;;29.45;11.80;;;;;;;;;;5049790;28;42340;-84
2021/12/30 07:21:56;;;;;;;25.85;12.00;;;;;;;;;;5048471;28;42506;-83
2021/12/30 07:24:23;;;;;;;20.95;9.50;;;;;;;;;;5049710;28;42227;-83
2021/12/30 07:26:51;;;;;;;21.58;9.05;;;;;;;;;;5049327;28;43710;-83
2021/12/30 07:29:18;;;;;;;21.43;8.73;;;;;;;;;;5049163;28;45084;-83
2021/12/30 07:31:45;;;;;;;33.92;10.25;;;;;;;;;;5049479;28;44632;-83
2021/12/30 07:34:12;;;;;;;23.30;8.23;;;;;;;;;;5048767;28;44907;-84
2021/12/30 07:36:39;;;;;;;24.50;7.57;;;;;;;;;;5048652;28;43898;-83
2021/12/30 07:39:05;;;;;;;19.65;6.75;;;;;;;;;;5049476;28;43159;-83
2021/12/30 07:41:32;;;;;;;19.63;6.55;;;;;;;;;;5049164;28;44901;-83
2021/12/30 07:43:59;;;;;;;17.05;6.60;;;;;;;;;;5048809;28;43683;-83
2021/12/30 07:46:25;;;;;;;18.40;6.93;;;;;;;;;;5049120;28;43156;-83
2021/12/30 07:48:53;;;;;;;23.58;7.65;;;;;;;;;;5048939;28;45232;-83
2021/12/30 07:51:19;;;;;;;25.23;7.00;;;;;;;;;;5048811;28;42187;-83
2021/12/30 07:53:46;;;;;;;22.30;7.15;;;;;;;;;;5049668;28;44971;-83
2021/12/30 07:56:13;;;;;;;17.85;6.85;;;;;;;;;;5048539;28;43352;-83
2021/12/30 07:58:40;;;;;;;25.10;8.98;;;;;;;;;;5048911;28;46014;-83
2021/12/30 08:01:07;;;;;;;41.83;11.30;;;;;;;;;;5048906;28;43518;-82
2021/12/30 08:03:34;;;;;;;30.27;10.52;;;;;;;;;;5048901;28;45133;-83
2021/12/30 08:06:01;;;;;;;35.25;11.75;;;;;;;;;;5048516;28;45549;-82
2021/12/30 08:08:27;;;;;;;44.88;15.50;;;;;;;;;;5049338;28;42873;-83
2021/12/30 08:10:54;;;;;;;35.05;13.18;;;;;;;;;;5048472;28;42726;-83
2021/12/30 08:13:21;;;;;;;31.92;13.20;;;;;;;;;;5049430;28;43783;-83
2021/12/30 08:15:47;;;;;;;37.90;14.10;;;;;;;;;;5049233;28;42847;-83
2021/12/30 08:18:14;;;;;;;33.45;13.52;;;;;;;;;;5048077;28;44126;-83
2021/12/30 08:20:41;;;;;;;44.08;14.23;;;;;;;;;;5052568;28;43387;-83
2021/12/30 08:23:07;;;;;;;34.90;13.32;;;;;;;;;;5050781;28;43762;-83
2021/12/30 08:25:34;;;;;;;25.63;10.60;;;;;;;;;;5051923;28;45276;-83
2021/12/30 08:28:01;;;;;;;31.20;10.77;;;;;;;;;;5051584;28;44922;-83
2021/12/30 08:30:28;;;;;;;29.30;10.02;;;;;;;;;;5052725;28;43715;-83
2021/12/30 08:32:55;;;;;;;34.85;9.75;;;;;;;;;;5050851;28;43882;-83
2021/12/30 08:35:22;;;;;;;27.73;8.25;;;;;;;;;;5052180;28;43907;-83
2021/12/30 08:37:49;;;;;;;40.70;8.55;;;;;;;;;;5051634;28;44850;-82
2021/12/30 08:40:17;;;;;;;29.95;7.70;;;;;;;;;;5051834;28;43923;-83
2021/12/30 08:42:44;;;;;;;26.95;7.93;;;;;;;;;;5051218;28;43638;-83
2021/12/30 08:45:12;;;;;;;39.55;7.43;;;;;;;;;;5051347;28;45015;-83
2021/12/30 08:47:39;;;;;;;35.88;7.50;;;;;;;;;;5050720;28;43893;-83
2021/12/30 08:50:06;;;;;;;40.25;8.20;;;;;;;;;;5051886;28;43702;-85
2021/12/30 08:52:33;;;;;;;24.08;5.60;;;;;;;;;;5050131;28;44005;-83
2021/12/30 08:55:04;;;;;;;39.03;7.97;;;;;;;;;;5051772;28;43828;-83
2021/12/30 08:57:31;;;;;;;31.90;7.10;;;;;;;;;;5051610;28;43231;-85
2021/12/30 09:00:00;;;;;;;45.53;7.53;;;;;;;;;;5049342;28;45227;-83
2021/12/30 09:02:26;;;;;;;;;;;;;;;;;;5047179;28;44862;-83
2021/12/30 09:04:53;;;;;;;31.92;6.32;;;;;;;;;;5050014;28;45161;-83
2021/12/30 09:07:21;;;;;;;39.80;7.93;;;;;;;;;;5049305;28;44790;-83
2021/12/30 09:09:47;;;;;;;38.50;6.95;;;;;;;;;;5049290;28;43274;-83
2021/12/30 09:12:17;;;;;;;39.78;6.78;;;;;;;;;;5048096;28;45276;-83
2021/12/30 09:14:44;;;;;;;29.17;6.65;;;;;;;;;;5049250;28;42848;-83
2021/12/30 09:17:13;;;;;;;40.20;6.95;;;;;;;;;;5050077;28;43805;-84
2021/12/30 09:19:40;;;;;;;32.35;7.53;;;;;;;;;;5051791;28;42946;-83
2021/12/30 09:22:06;;;;;;;34.80;6.80;;;;;;;;;;5050668;28;44897;-83
2021/12/30 09:24:33;;;;;;;35.75;7.50;;;;;;;;;;5051564;28;42897;-82
2021/12/30 09:27:00;;;;;;;32.13;6.43;;;;;;;;;;5050854;28;42958;-82
2021/12/30 09:29:27;;;;;;;34.17;6.18;;;;;;;;;;5051255;28;44541;-82
2021/12/30 09:31:54;;;;;;;40.30;7.53;;;;;;;;;;5050060;28;43942;-84
2021/12/30 09:34:21;;;;;;;29.52;6.82;;;;;;;;;;5050949;28;20054;-81
2021/12/30 09:36:47;;;;;;;38.20;7.65;;;;;;;;;;5049797;28;43197;-83
2021/12/30 09:39:15;;;;;;;26.98;6.53;;;;;;;;;;5051210;28;44478;-83
2021/12/30 09:41:44;;;;;;;30.60;6.35;;;;;;;;;;5050629;28;44887;-84
2021/12/30 09:44:18;;;;;;;26.77;6.28;;;;;;;;;;5050529;28;43939;-81
2021/12/30 09:46:45;;;;;;;34.45;7.03;;;;;;;;;;5050623;28;43633;-81
2021/12/30 09:49:14;;;;;;;46.95;8.18;;;;;;;;;;5050431;28;45034;-82
2021/12/30 09:51:42;;;;;;;25.35;6.03;;;;;;;;;;5050464;28;44279;-82
2021/12/30 09:54:09;;;;;;;27.05;6.50;;;;;;;;;;5050855;28;43377;-86
2021/12/30 09:56:36;;;;;;;24.92;4.50;;;;;;;;;;5047793;28;45604;-82
2021/12/30 09:59:02;;;;;;;28.30;5.80;;;;;;;;;;4990441;28;45397;-81
2021/12/30 10:01:29;;;;;;;29.45;5.63;;;;;;;;;;5019593;28;45055;-82
2021/12/30 10:03:56;;;;;;;27.38;5.82;;;;;;;;;;5018501;28;43699;-82
2021/12/30 10:06:23;;;;;;;33.97;5.85;;;;;;;;;;5017864;28;45141;-82
2021/12/30 10:09:01;;;;;;;30.02;6.65;;;;;;;;;;5018206;28;43761;-82
2021/12/30 10:11:28;;;;;;;;;;;;;;;;;;5018294;28;44001;-81
2021/12/30 10:13:56;;;;;;;31.48;5.97;;;;;;;;;;5019137;28;45179;-81
2021/12/30 10:16:24;;;;;;;30.33;6.30;;;;;;;;;;5018989;28;42138;-81
2021/12/30 10:18:52;;;;;;;28.70;5.10;;;;;;;;;;5017406;28;43414;-81
2021/12/30 10:21:22;;;;;;;25.83;4.72;;;;;;;;;;5019960;28;44968;-81
2021/12/30 10:23:59;;;;;;;27.90;4.95;;;;;;;;;;5019412;28;43695;-82
2021/12/30 10:26:26;;;;;;;30.15;6.10;;;;;;;;;;5016736;28;43860;-81
2021/12/30 10:29:00;;;;;;;30.75;5.15;;;;;;;;;;5013989;28;45571;-85
2021/12/30 10:31:28;;;;;;;26.63;4.68;;;;;;;;;;5009106;28;42914;-84
2021/12/30 10:33:56;;;;;;;32.47;5.90;;;;;;;;;;5009932;28;43887;-81
2021/12/30 10:36:23;;;;;;;27.88;5.35;;;;;;;;;;5009574;28;43659;-80
2021/12/30 10:38:51;;;;;;;29.52;5.00;;;;;;;;;;5009398;28;41919;-83
2021/12/30 10:41:20;;;;;;;28.93;6.63;;;;;;;;;;5009761;28;44129;-81
2021/12/30 10:43:51;;;;;;;33.08;6.07;;;;;;;;;;5020710;28;42510;-81
2021/12/30 10:46:20;;;;;;;29.40;5.95;;;;;;;;;;5033888;28;43680;-81
2021/12/30 10:48:55;;;;;;;32.78;6.13;;;;;;;;;;5036558;28;43922;-82
2021/12/30 10:51:23;;;;;;;26.52;5.53;;;;;;;;;;5045976;28;46180;-81
2021/12/30 10:53:51;;;;;;;32.75;5.82;;;;;;;;;;5046689;28;45055;-81
2021/12/30 10:56:22;;;;;;;26.88;5.65;;;;;;;;;;5030710;28;42229;-81
2021/12/30 10:58:50;;;;;;;23.70;5.72;;;;;;;;;;5027373;28;44943;-83
2021/12/30 11:01:18;;;;;;;19.90;5.35;;;;;;;;;;5026958;28;42966;-82
2021/12/30 11:03:58;;;;;;;18.83;5.05;;;;;;;;;;5027420;28;43675;-81
2021/12/30 11:06:25;;;;;;;26.52;5.28;;;;;;;;;;5035126;28;41643;-84
2021/12/30 11:09:11;;;;;;;23.02;4.72;;;;;;;;;;5042652;28;42809;-81
2021/12/30 11:11:43;;;;;;;27.15;5.68;;;;;;;;;;5036810;28;43743;-81
2021/12/30 11:14:11;;;;;;;25.20;5.82;;;;;;;;;;5036210;28;43869;-81
2021/12/30 11:16:59;;;;;;;22.25;4.80;;;;;;;;;;5035950;28;42779;-82
2021/12/30 11:19:28;;;;;;;22.73;4.63;;;;;;;;;;5037856;28;45108;-82
2021/12/30 11:21:58;;;;;;;17.55;4.57;;;;;;;;;;5034888;28;42952;-81
2021/12/30 11:24:28;;;;;;;21.75;4.18;;;;;;;;;;5037711;28;42677;-81
2021/12/30 11:26:56;;;;;;;12.32;3.53;;;;;;;;;;5035400;28;43929;-81
2021/12/30 11:29:23;;;;;;;;;;;;;;;;;;5038710;28;44757;-81
2021/12/30 11:31:50;;;;;;;17.50;3.80;;;;;;;;;;5036250;28;44442;-82
2021/12/30 11:34:18;;;;;;;21.35;4.88;;;;;;;;;;5035945;28;44822;-81
2021/12/30 11:36:45;;;;;;;18.67;4.07;;;;;;;;;;5036656;28;44834;-81
2021/12/30 11:39:13;;;;;;;20.52;4.20;;;;;;;;;;5033926;28;45428;-81
2021/12/30 11:41:42;;;;;;;21.23;4.35;;;;;;;;;;5021507;28;45307;-81
2021/12/30 11:44:09;;;;;;;23.38;4.75;;;;;;;;;;5030313;28;46031;-81
2021/12/30 11:46:43;;;;;;;18.25;4.60;;;;;;;;;;5027830;28;45701;-81
2021/12/30 11:49:12;;;;;;;21.20;4.63;;;;;;;;;;5024559;28;43961;-81
2021/12/30 11:51:49;;;;;;;19.13;4.07;;;;;;;;;;5025170;28;44867;-82
2021/12/30 11:54:36;;;;;;;22.17;4.72;;;;;;;;;;5030810;28;45116;-81
2021/12/30 11:57:21;;;;;;;20.98;4.80;;;;;;;;;;5010437;28;44973;-81
2021/12/30 11:59:48;;;;;;;18.27;4.80;;;;;;;;;;5010453;28;45257;-81
2021/12/30 12:02:30;;;;;;;20.20;5.07;;;;;;;;;;5010420;28;44884;-81
2021/12/30 12:04:56;;;;;;;15.88;4.28;;;;;;;;;;5013492;28;44743;-82
2021/12/30 12:07:26;;;;;;;26.00;5.88;;;;;;;;;;5024107;28;46293;-82
2021/12/30 12:09:53;;;;;;;25.88;5.78;;;;;;;;;;5029465;28;42669;-81
2021/12/30 12:12:39;;;;;;;23.00;5.25;;;;;;;;;;5029497;28;42608;-81
2021/12/30 12:15:06;;;;;;;20.10;4.28;;;;;;;;;;5030670;28;45045;-81
2021/12/30 12:17:41;;;;;;;22.73;4.88;;;;;;;;;;5029967;28;45002;-82
2021/12/30 12:20:19;;;;;;;19.40;4.60;;;;;;;;;;5032443;28;45430;-81
2021/12/30 12:22:46;;;;;;;;;;;;;;;;;;5032602;28;44883;-82
2021/12/30 12:25:14;;;;;;;16.95;4.68;;;;;;;;;;5030241;28;44393;-82
2021/12/30 12:27:45;;;;;;;23.02;5.15;;;;;;;;;;5030192;28;44991;-81
2021/12/30 12:30:22;;;;;;;20.20;5.40;;;;;;;;;;5030394;28;44972;-81
2021/12/30 12:32:49;;;;;;;19.92;4.95;;;;;;;;;;5028773;28;43808;-82
2021/12/30 12:35:16;;;;;;;22.58;5.20;;;;;;;;;;5030889;28;44960;-81
2021/12/30 12:37:44;;;;;;;21.00;5.00;;;;;;;;;;5028958;28;43584;-81
2021/12/30 12:40:12;;;;;;;24.02;5.28;;;;;;;;;;5030266;28;43752;-81
2021/12/30 12:42:42;;;;;;;15.00;4.80;;;;;;;;;;5032830;28;44063;-82
2021/12/30 12:45:19;;;;;;;20.95;4.78;;;;;;;;;;5029760;28;44738;-81
2021/12/30 12:47:47;;;;;;;18.58;4.90;;;;;;;;;;5029350;28;44964;-82
2021/12/30 12:50:14;;;;;;;22.38;5.70;;;;;;;;;;5030439;28;44956;-82
2021/12/30 12:52:45;;;;;;;15.43;4.15;;;;;;;;;;5026566;28;43632;-82
2021/12/30 12:55:13;;;;;;;12.65;4.10;;;;;;;;;;5038747;28;45165;-82
2021/12/30 12:57:41;;;;;;;14.07;3.67;;;;;;;;;;5032230;28;44623;-82
2021/12/30 13:00:09;;;;;;;18.23;4.53;;;;;;;;;;5034573;28;45689;-81
2021/12/30 13:02:36;;;;;;;12.23;3.70;;;;;;;;;;5035867;28;41571;-82
2021/12/30 13:05:07;;;;;;;15.63;4.30;;;;;;;;;;5037906;28;42705;-83
2021/12/30 13:07:34;;;;;;;12.02;3.75;;;;;;;;;;5036711;28;44566;-82
2021/12/30 13:10:00;;;;;;;14.13;4.32;;;;;;;;;;5037419;28;42902;-82
2021/12/30 13:12:33;;;;;;;15.98;4.40;;;;;;;;;;5036153;28;43269;-82
2021/12/30 13:15:08;;;;;;;21.02;4.63;;;;;;;;;;5038162;28;44003;-82
2021/12/30 13:17:34;;;;;;;16.17;3.90;;;;;;;;;;5037739;28;44921;-82
2021/12/30 13:20:01;;;;;;;16.40;4.43;;;;;;;;;;5037112;28;45076;-82
2021/12/30 13:22:28;;;;;;;15.18;4.75;;;;;;;;;;5037062;28;44943;-82
2021/12/30 13:24:56;;;;;;;17.17;4.53;;;;;;;;;;5038655;28;42372;-82
2021/12/30 13:27:24;;;;;;;14.50;4.07;;;;;;;;;;5032536;28;44846;-82
2021/12/30 13:30:13;;;;;;;22.55;4.35;;;;;;;;;;5038992;28;44989;-81
2021/12/30 13:32:48;;;;;;;14.95;3.90;;;;;;;;;;5037347;28;45095;-82
2021/12/30 13:35:19;;;;;;;12.95;4.10;;;;;;;;;;5037166;28;42665;-83
2021/12/30 13:37:47;;;;;;;23.83;4.45;;;;;;;;;;5036179;28;43811;-82
2021/12/30 13:40:14;;;;;;;;;;;;;;;;;;5038195;28;41873;-83
2021/12/30 13:42:46;;;;;;;13.10;3.55;;;;;;;;;;5035990;28;45047;-82
2021/12/30 13:45:13;;;;;;;13.45;3.42;;;;;;;;;;5033884;28;43855;-82
2021/12/30 13:47:40;;;;;;;15.18;3.80;;;;;;;;;;5031091;28;43226;-84
2021/12/30 13:50:09;;;;;;;10.90;3.42;;;;;;;;;;5035415;28;43185;-82
2021/12/30 13:52:37;;;;;;;15.00;3.20;;;;;;;;;;5031705;28;43510;-81
2021/12/30 13:55:21;;;;;;;15.18;3.88;;;;;;;;;;5030608;28;45320;-81
2021/12/30 13:57:58;;;;;;;14.68;3.72;;;;;;;;;;5030531;28;44882;-81
2021/12/30 14:00:26;;;;;;;13.50;3.73;;;;;;;;;;5028741;28;45072;-81
2021/12/30 14:02:59;;;;;;;15.52;3.15;;;;;;;;;;5015393;28;44945;-81
2021/12/30 14:05:26;;;;;;;10.60;2.95;;;;;;;;;;5017313;28;43888;-81
2021/12/30 14:07:53;;;;;;;18.88;3.95;;;;;;;;;;5017848;28;43654;-82
2021/12/30 14:10:20;;;;;;;14.45;3.38;;;;;;;;;;5016715;28;43837;-82
2021/12/30 14:12:56;;;;;;;20.35;3.55;;;;;;;;;;5027378;28;43151;-82
2021/12/30 14:15:24;;;;;;;13.73;3.00;;;;;;;;;;5030199;28;43516;-82
2021/12/30 14:17:57;;;;;;;14.27;3.47;;;;;;;;;;5025458;28;44387;-80
2021/12/30 14:20:25;;;;;;;19.92;4.18;;;;;;;;;;5037537;28;44695;-81
2021/12/30 14:22:51;;;;;;;17.58;3.50;;;;;;;;;;5037912;28;45337;-83
2021/12/30 14:25:25;;;;;;;17.58;3.58;;;;;;;;;;5028889;28;43711;-82
2021/12/30 14:27:51;;;;;;;14.20;3.80;;;;;;;;;;5025829;28;43864;-82
2021/12/30 14:30:19;;;;;;;14.50;4.05;;;;;;;;;;5026829;28;42953;-82